createdAt,value
2023-02-16T00:01:59.233Z,59.56
2023-02-16T00:04:28.754Z,59.39
2023-02-16T00:07:00.261Z,60.00
2023-02-16T00:09:29.320Z,59.76
2023-02-16T00:12:14.926Z,59.72
2023-02-16T00:14:41.451Z,59.44
2023-02-16T00:17:11.270Z,59.07
2023-02-16T00:19:40.256Z,58.98
2023-02-16T00:22:08.152Z,58.81
2023-02-16T00:24:35.262Z,58.88
2023-02-16T00:27:01.973Z,58.57
2023-02-16T00:29:37.282Z,58.24
2023-02-16T00:32:05.901Z,58.28
2023-02-16T00:34:35.633Z,58.37
2023-02-16T00:37:05.166Z,58.02
2023-02-16T00:39:32.416Z,58.21
2023-02-16T00:42:03.179Z,58.95
2023-02-16T00:44:34.205Z,59.51
2023-02-16T00:47:10.962Z,58.76
2023-02-16T00:49:37.486Z,58.92
2023-02-16T00:52:24.280Z,58.77
2023-02-16T00:54:50.798Z,58.46
2023-02-16T00:57:19.008Z,58.88
2023-02-16T00:59:47.160Z,59.62
2023-02-16T01:02:14.016Z,60.45
2023-02-16T01:04:40.832Z,60.48
2023-02-16T01:07:35.043Z,61.01
2023-02-16T01:10:24.365Z,60.16
2023-02-16T01:12:50.895Z,60.14
2023-02-16T01:15:21.221Z,59.92
2023-02-16T01:17:47.762Z,60.09
2023-02-16T01:20:16.746Z,59.63
2023-02-16T01:22:43.242Z,59.89
2023-02-16T01:25:10.529Z,59.57
2023-02-16T01:27:38.373Z,59.15
2023-02-16T01:30:06.593Z,59.41
2023-02-16T01:32:36.933Z,59.41
2023-02-16T01:35:06.833Z,59.70
2023-02-16T01:37:36.766Z,59.91
2023-02-16T01:40:07.147Z,59.67
2023-02-16T01:42:44.911Z,59.46
2023-02-16T01:45:17.426Z,59.29
2023-02-16T01:47:54.487Z,60.28
2023-02-16T01:50:24.640Z,60.02
2023-02-16T01:53:01.707Z,60.38
2023-02-16T01:55:41.581Z,60.62
2023-02-16T01:58:45.104Z,60.15
2023-02-16T02:01:36.791Z,59.57
2023-02-16T02:04:30.720Z,59.01
2023-02-16T02:06:57.244Z,58.87
2023-02-16T02:09:38.532Z,58.55
2023-02-16T02:12:37.807Z,58.85
2023-02-16T02:15:09.201Z,58.89
2023-02-16T02:17:38.507Z,59.51
2023-02-16T02:20:11.059Z,60.40
2023-02-16T02:23:20.283Z,60.48
2023-02-16T02:26:07.097Z,60.60
2023-02-16T02:28:54.735Z,60.23
2023-02-16T02:31:37.262Z,59.91
2023-02-16T02:34:18.950Z,60.14
2023-02-16T02:37:00.654Z,59.89
2023-02-16T02:39:45.571Z,60.42
2023-02-16T02:42:40.822Z,60.97
2023-02-16T02:45:14.152Z,61.30
2023-02-16T02:47:43.817Z,61.21
2023-02-16T02:51:12.340Z,60.98
2023-02-16T02:53:50.239Z,61.69
2023-02-16T02:56:39.549Z,61.54
2023-02-16T02:59:27.959Z,62.39
2023-02-16T03:01:59.555Z,61.85
2023-02-16T03:04:30.578Z,61.90
2023-02-16T03:06:59.205Z,61.36
2023-02-16T03:09:26.393Z,61.49
2023-02-16T03:12:13.987Z,62.00
2023-02-16T03:15:01.423Z,62.93
2023-02-16T03:17:53.676Z,62.90
2023-02-16T03:20:42.681Z,62.55
2023-02-16T03:23:31.094Z,62.23
2023-02-16T03:26:16.054Z,62.09
2023-02-16T03:29:02.976Z,62.50
2023-02-16T03:31:36.601Z,62.44
2023-02-16T03:34:03.309Z,62.20
2023-02-16T03:36:33.409Z,62.46
2023-02-16T03:39:00.559Z,61.51
2023-02-16T03:41:31.635Z,61.86
2023-02-16T03:43:58.296Z,61.46
2023-02-16T03:46:24.982Z,61.27
2023-02-16T03:48:51.490Z,61.70
2023-02-16T03:51:18.140Z,61.82
2023-02-16T03:53:44.605Z,61.65
2023-02-16T03:56:11.419Z,61.75
2023-02-16T03:58:37.953Z,61.99
2023-02-16T04:01:04.781Z,62.26
2023-02-16T04:03:31.488Z,62.10
2023-02-16T04:05:58.006Z,61.87
2023-02-16T04:08:24.536Z,61.99
2023-02-16T04:10:51.053Z,62.20
2023-02-16T04:13:17.560Z,61.63
2023-02-16T04:15:44.095Z,62.14
2023-02-16T04:18:13.693Z,62.29
2023-02-16T04:20:42.300Z,63.11
2023-02-16T04:23:09.030Z,63.21
2023-02-16T04:25:35.766Z,64.04
2023-02-16T04:28:02.274Z,64.92
2023-02-16T04:30:31.065Z,65.17
2023-02-16T04:32:59.343Z,66.14
2023-02-16T04:35:25.880Z,66.67
2023-02-16T04:37:52.355Z,67.55
2023-02-16T04:40:19.323Z,67.51
2023-02-16T04:42:46.300Z,68.21
2023-02-16T04:45:16.498Z,67.38
2023-02-16T04:47:46.169Z,67.58
2023-02-16T04:50:14.114Z,67.63
2023-02-16T04:52:41.582Z,67.16
2023-02-16T04:55:10.799Z,67.86
2023-02-16T04:57:39.227Z,68.13
2023-02-16T05:00:10.060Z,67.53
2023-02-16T05:02:36.557Z,66.96
2023-02-16T05:05:03.117Z,66.85
2023-02-16T05:07:30.037Z,67.06
2023-02-16T05:09:56.521Z,67.78
2023-02-16T05:12:45.922Z,67.69
2023-02-16T05:15:12.532Z,67.34
2023-02-16T05:17:39.042Z,67.29
2023-02-16T05:20:06.632Z,67.20
2023-02-16T05:22:34.438Z,66.79
2023-02-16T05:25:02.132Z,66.67
2023-02-16T05:27:30.173Z,67.05
2023-02-16T05:29:56.742Z,66.96
2023-02-16T05:32:23.468Z,67.40
2023-02-16T05:34:50.258Z,67.40
2023-02-16T05:37:18.372Z,67.07
2023-02-16T05:39:48.499Z,66.80
2023-02-16T05:42:15.499Z,67.22
2023-02-16T05:44:42.160Z,66.74
2023-02-16T05:47:08.696Z,66.96
2023-02-16T05:49:35.345Z,66.89
2023-02-16T05:52:02.172Z,67.42
2023-02-16T05:54:28.717Z,66.80
2023-02-16T05:56:55.590Z,66.67
2023-02-16T05:59:22.386Z,66.05
2023-02-16T06:01:51.924Z,65.96
2023-02-16T06:04:19.856Z,66.33
2023-02-16T06:06:49.006Z,66.38
2023-02-16T06:09:15.494Z,66.73
2023-02-16T06:11:42.567Z,66.58
2023-02-16T06:14:35.463Z,66.27
2023-02-16T06:17:01.961Z,66.55
2023-02-16T06:19:28.447Z,66.70
2023-02-16T06:21:55.015Z,66.83
2023-02-16T06:24:21.505Z,65.73
2023-02-16T06:26:51.196Z,66.32
2023-02-16T06:29:17.734Z,66.53
2023-02-16T06:31:44.490Z,66.66
2023-02-16T06:34:11.145Z,66.34
2023-02-16T06:36:37.895Z,66.66
2023-02-16T06:39:04.764Z,66.87
2023-02-16T06:41:31.710Z,66.52
2023-02-16T06:44:04.117Z,66.70
2023-02-16T06:46:31.055Z,67.31
2023-02-16T06:48:57.847Z,66.78
2023-02-16T06:51:24.372Z,66.63
2023-02-16T06:53:51.704Z,66.80
2023-02-16T06:56:20.144Z,66.56
2023-02-16T06:58:46.802Z,66.36
2023-02-16T07:01:13.562Z,66.59
2023-02-16T07:03:40.357Z,67.33
2023-02-16T07:06:07.038Z,67.11
2023-02-16T07:08:35.693Z,67.26
2023-02-16T07:11:02.531Z,66.85
2023-02-16T07:13:28.996Z,66.12
2023-02-16T07:15:55.510Z,66.90
2023-02-16T07:18:22.613Z,67.09
2023-02-16T07:20:49.117Z,66.41
2023-02-16T07:23:15.674Z,66.53
2023-02-16T07:25:42.170Z,66.08
2023-02-16T07:28:08.749Z,65.41
2023-02-16T07:30:36.105Z,65.60
2023-02-16T07:33:02.964Z,66.81
2023-02-16T07:35:29.895Z,64.64
2023-02-16T07:37:56.625Z,63.49
2023-02-16T07:40:23.183Z,60.84
2023-02-16T07:42:51.992Z,58.46
2023-02-16T07:45:19.099Z,55.43
2023-02-16T07:47:45.737Z,52.06
2023-02-16T07:50:12.404Z,49.70
2023-02-16T07:52:39.516Z,46.93
2023-02-16T07:55:06.433Z,44.89
2023-02-16T07:57:32.980Z,44.83
2023-02-16T07:59:59.565Z,43.16
2023-02-16T08:02:27.430Z,43.19
2023-02-16T08:04:54.145Z,41.53
2023-02-16T08:07:26.779Z,41.81
2023-02-16T08:09:53.504Z,42.40
2023-02-16T08:12:21.275Z,42.53
2023-02-16T08:14:47.906Z,42.79
2023-02-16T08:17:14.947Z,43.23
2023-02-16T08:19:41.730Z,43.64
2023-02-16T08:22:09.172Z,43.35
2023-02-16T08:24:35.950Z,43.93
2023-02-16T08:27:04.375Z,44.38
2023-02-16T08:29:32.493Z,45.44
2023-02-16T08:31:59.727Z,44.94
2023-02-16T08:34:26.876Z,45.48
2023-02-16T08:36:56.840Z,45.68
2023-02-16T08:39:30.854Z,45.05
2023-02-16T08:41:58.643Z,43.62
2023-02-16T08:44:26.518Z,43.64
2023-02-16T08:46:55.591Z,43.18
2023-02-16T08:49:26.184Z,42.91
2023-02-16T08:51:55.548Z,42.29
2023-02-16T08:54:30.516Z,41.36
2023-02-16T08:56:59.159Z,40.72
2023-02-16T08:59:28.458Z,41.03
2023-02-16T09:01:57.008Z,41.01
2023-02-16T09:04:25.881Z,40.81
2023-02-16T09:06:56.434Z,39.89
2023-02-16T09:09:26.729Z,39.78
2023-02-16T09:11:57.852Z,39.86
2023-02-16T09:14:25.201Z,40.45
2023-02-16T09:16:56.259Z,40.11
2023-02-16T09:19:24.673Z,39.79
2023-02-16T09:21:53.784Z,40.17
2023-02-16T09:24:20.270Z,39.16
2023-02-16T09:26:47.090Z,40.81
2023-02-16T09:29:14.208Z,42.08
2023-02-16T09:31:41.528Z,41.66
2023-02-16T09:34:14.010Z,41.95
2023-02-16T09:36:41.096Z,42.40
2023-02-16T09:39:08.294Z,41.34
2023-02-16T09:41:40.859Z,41.81
2023-02-16T09:44:25.843Z,41.74
2023-02-16T09:46:58.868Z,42.70
2023-02-16T09:49:44.027Z,43.03
2023-02-16T09:52:28.501Z,42.11
2023-02-16T09:54:59.451Z,42.31
2023-02-16T09:57:31.706Z,41.90
2023-02-16T10:00:07.930Z,41.86
2023-02-16T10:02:47.284Z,41.13
2023-02-16T10:05:20.335Z,40.95
2023-02-16T10:07:59.950Z,40.82
2023-02-16T10:10:40.188Z,39.94
2023-02-16T10:13:17.786Z,40.48
2023-02-16T10:15:46.187Z,40.00
2023-02-16T10:18:29.461Z,40.25
2023-02-16T10:21:00.575Z,38.81
2023-02-16T10:23:58.958Z,39.24
2023-02-16T10:26:42.891Z,38.93
2023-02-16T10:29:23.100Z,38.86
2023-02-16T10:32:03.136Z,39.29
2023-02-16T10:34:50.086Z,38.00
2023-02-16T10:37:16.576Z,38.35
2023-02-16T10:39:43.013Z,36.73
2023-02-16T10:42:23.909Z,35.51
2023-02-16T10:45:34.589Z,36.15
2023-02-16T10:48:01.271Z,35.80
2023-02-16T10:50:35.946Z,35.09
2023-02-16T10:53:10.822Z,34.31
2023-02-16T10:55:38.389Z,34.10
2023-02-16T10:58:05.093Z,35.00
2023-02-16T11:00:56.707Z,33.13
2023-02-16T11:03:26.133Z,33.99
2023-02-16T11:05:53.641Z,32.82
2023-02-16T11:08:20.572Z,32.90
2023-02-16T11:10:53.374Z,33.16
2023-02-16T11:13:34.423Z,31.64
2023-02-16T11:16:08.853Z,30.80
2023-02-16T11:18:45.713Z,28.62
2023-02-16T11:21:13.329Z,28.03
2023-02-16T11:23:42.175Z,28.08
2023-02-16T11:26:14.508Z,27.44
2023-02-16T11:28:43.497Z,27.95
2023-02-16T11:31:12.454Z,27.99
2023-02-16T11:33:41.446Z,28.34
2023-02-16T11:36:20.215Z,28.77
2023-02-16T11:39:02.137Z,28.95
2023-02-16T11:41:30.117Z,29.22
2023-02-16T11:43:57.904Z,29.41
2023-02-16T11:46:24.845Z,29.04
2023-02-16T11:48:55.429Z,29.19
2023-02-16T11:51:34.956Z,30.39
2023-02-16T11:54:06.071Z,30.22
2023-02-16T11:56:35.415Z,29.93
2023-02-16T11:59:07.252Z,29.73
2023-02-16T12:01:55.466Z,29.02
2023-02-16T12:04:40.436Z,28.68
2023-02-16T12:07:45.616Z,28.81
2023-02-16T12:10:29.555Z,28.08
2023-02-16T12:13:16.513Z,27.54
2023-02-16T12:16:12.735Z,27.80
2023-02-16T12:18:58.410Z,27.79
2023-02-16T12:21:45.446Z,26.43
2023-02-16T12:24:27.437Z,26.35
2023-02-16T12:26:58.439Z,26.09
2023-02-16T12:29:34.064Z,25.23
2023-02-16T12:32:06.826Z,24.91
2023-02-16T12:34:47.068Z,23.80
2023-02-16T12:37:39.209Z,23.71
2023-02-16T12:40:46.440Z,23.97
2023-02-16T12:43:40.989Z,23.60
2023-02-16T12:46:47.108Z,23.44
2023-02-16T12:49:29.693Z,23.95
2023-02-16T12:52:31.711Z,24.39
2023-02-16T12:55:36.621Z,23.11
2023-02-16T12:58:21.005Z,23.19
2023-02-16T13:00:52.474Z,23.68
2023-02-16T13:03:25.826Z,24.87
2023-02-16T13:06:26.452Z,24.51
2023-02-16T13:09:04.585Z,22.72
2023-02-16T13:11:49.252Z,24.13
2023-02-16T13:14:21.805Z,22.71
2023-02-16T13:16:55.606Z,22.04
2023-02-16T13:19:24.141Z,22.17
2023-02-16T13:21:57.181Z,22.67
2023-02-16T13:25:07.050Z,24.31
2023-02-16T13:28:03.853Z,23.89
2023-02-16T13:30:40.413Z,23.30
2023-02-16T13:33:14.578Z,23.54
2023-02-16T13:35:57.361Z,23.81
2023-02-16T13:38:43.086Z,23.63
2023-02-16T13:41:28.502Z,22.80
2023-02-16T13:44:07.201Z,23.73
2023-02-16T13:46:41.512Z,23.64
2023-02-16T13:49:30.405Z,22.38
2023-02-16T13:51:58.673Z,23.29
2023-02-16T13:54:30.674Z,23.91
2023-02-16T13:56:57.828Z,23.30
2023-02-16T13:59:26.296Z,23.16
2023-02-16T14:01:55.125Z,22.99
2023-02-16T14:04:31.217Z,24.72
2023-02-16T14:07:01.226Z,24.48
2023-02-16T14:09:36.216Z,24.94
2023-02-16T14:12:04.579Z,25.07
2023-02-16T14:14:33.941Z,24.43
2023-02-16T14:17:19.210Z,24.55
2023-02-16T14:19:52.950Z,23.58
2023-02-16T14:22:23.327Z,22.72
2023-02-16T14:24:58.768Z,23.19
2023-02-16T14:27:44.069Z,22.83
2023-02-16T14:30:35.783Z,22.75
2023-02-16T14:33:19.447Z,22.49
2023-02-16T14:35:59.914Z,22.01
2023-02-16T14:38:32.941Z,21.91
2023-02-16T14:41:02.505Z,21.61
2023-02-16T14:43:46.061Z,22.22
2023-02-16T14:46:27.176Z,22.02
2023-02-16T14:49:29.094Z,22.28
2023-02-16T14:52:16.940Z,23.30
2023-02-16T14:55:07.985Z,22.61
2023-02-16T14:57:37.536Z,22.83
2023-02-16T15:00:42.102Z,23.16
2023-02-16T15:03:24.330Z,23.55
2023-02-16T15:06:02.440Z,23.87
2023-02-16T15:08:38.070Z,24.48
2023-02-16T15:11:20.282Z,25.06
2023-02-16T15:13:51.805Z,24.93
2023-02-16T15:16:18.422Z,25.01
2023-02-16T15:18:56.213Z,25.32
2023-02-16T15:21:28.351Z,24.43
2023-02-16T15:23:57.457Z,24.62
2023-02-16T15:26:30.329Z,25.53
2023-02-16T15:29:22.702Z,24.65
2023-02-16T15:31:49.571Z,25.13
2023-02-16T15:34:28.825Z,24.77
2023-02-16T15:36:59.034Z,24.65
2023-02-16T15:39:48.409Z,24.33
2023-02-16T15:42:27.454Z,24.06
2023-02-16T15:44:53.968Z,24.79
2023-02-16T15:47:28.621Z,24.92
2023-02-16T15:49:57.246Z,26.80
2023-02-16T15:52:36.955Z,27.15
2023-02-16T15:55:06.892Z,27.79
2023-02-16T15:57:38.748Z,27.46
2023-02-16T16:00:20.831Z,27.22
2023-02-16T16:02:50.462Z,28.61
2023-02-16T16:05:27.541Z,28.51
2023-02-16T16:07:57.529Z,28.57
2023-02-16T16:10:35.656Z,29.39
2023-02-16T16:13:09.803Z,30.49
2023-02-16T16:15:41.634Z,30.04
2023-02-16T16:18:44.691Z,28.84
2023-02-16T16:21:34.267Z,29.91
2023-02-16T16:24:07.781Z,29.98
2023-02-16T16:26:50.897Z,29.63
2023-02-16T16:29:31.893Z,29.70
2023-02-16T16:31:58.636Z,29.93
2023-02-16T16:34:41.954Z,29.67
2023-02-16T16:37:38.057Z,31.27
2023-02-16T16:40:08.784Z,33.82
2023-02-16T16:42:39.256Z,33.90
2023-02-16T16:45:34.226Z,33.14
2023-02-16T16:48:07.457Z,33.43
2023-02-16T16:50:39.419Z,33.64
2023-02-16T16:53:30.851Z,33.56
2023-02-16T16:56:02.137Z,34.34
2023-02-16T16:58:29.089Z,34.76
2023-02-16T17:00:59.948Z,34.79
2023-02-16T17:03:30.582Z,35.74
2023-02-16T17:05:58.502Z,36.65
2023-02-16T17:08:27.309Z,37.47
2023-02-16T17:10:58.185Z,38.05
2023-02-16T17:13:27.412Z,38.55
2023-02-16T17:16:04.442Z,38.95
2023-02-16T17:18:31.204Z,39.58
2023-02-16T17:20:58.071Z,39.82
2023-02-16T17:23:27.021Z,40.79
2023-02-16T17:25:53.569Z,41.01
2023-02-16T17:28:20.802Z,42.29
2023-02-16T17:30:47.369Z,42.49
2023-02-16T17:33:14.119Z,42.97
2023-02-16T17:35:43.333Z,43.33
2023-02-16T17:38:13.205Z,43.66
2023-02-16T17:40:41.325Z,44.63
2023-02-16T17:43:13.454Z,44.83
2023-02-16T17:45:40.303Z,44.93
2023-02-16T17:48:10.432Z,45.28
2023-02-16T17:50:36.897Z,46.29
2023-02-16T17:53:03.433Z,46.27
2023-02-16T17:55:30.018Z,46.35
2023-02-16T17:57:59.634Z,45.96
2023-02-16T18:00:29.213Z,46.25
2023-02-16T18:02:58.762Z,46.50
2023-02-16T18:05:27.401Z,46.82
2023-02-16T18:07:53.935Z,46.93
2023-02-16T18:10:35.456Z,46.63
2023-02-16T18:13:02.113Z,46.87
2023-02-16T18:15:28.835Z,47.06
2023-02-16T18:18:00.362Z,47.14
2023-02-16T18:20:27.450Z,47.31
2023-02-16T18:22:54.428Z,47.47
2023-02-16T18:25:21.172Z,47.38
2023-02-16T18:27:47.718Z,47.32
2023-02-16T18:30:15.305Z,47.12
2023-02-16T18:32:42.592Z,47.15
2023-02-16T18:35:10.758Z,47.34
2023-02-16T18:37:37.635Z,47.53
2023-02-16T18:40:06.541Z,47.72
2023-02-16T18:42:33.409Z,48.38
2023-02-16T18:45:00.130Z,48.78
2023-02-16T18:47:29.819Z,49.28
2023-02-16T18:50:00.360Z,49.95
2023-02-16T18:52:29.985Z,50.10
2023-02-16T18:54:59.714Z,50.38
2023-02-16T18:57:29.945Z,50.52
2023-02-16T18:59:59.066Z,50.95
2023-02-16T19:02:30.213Z,50.65
2023-02-16T19:05:00.268Z,50.92
2023-02-16T19:07:27.960Z,50.36
2023-02-16T19:09:57.149Z,49.93
2023-02-16T19:12:23.886Z,49.67
2023-02-16T19:14:50.466Z,49.48
2023-02-16T19:17:17.233Z,49.70
2023-02-16T19:19:44.207Z,50.26
2023-02-16T19:22:11.088Z,50.59
2023-02-16T19:24:38.709Z,51.32
2023-02-16T19:27:05.334Z,51.54
2023-02-16T19:29:32.125Z,51.19
2023-02-16T19:31:58.927Z,52.25
2023-02-16T19:34:28.360Z,51.94
2023-02-16T19:37:32.733Z,52.60
2023-02-16T19:39:59.352Z,52.48
2023-02-16T19:42:30.974Z,52.57
2023-02-16T19:45:00.721Z,52.65
2023-02-16T19:47:27.219Z,53.13
2023-02-16T19:50:03.864Z,53.28
2023-02-16T19:52:30.553Z,53.25
2023-02-16T19:55:00.217Z,53.25
2023-02-16T19:57:30.204Z,53.50
2023-02-16T19:59:59.736Z,53.29
2023-02-16T20:02:29.502Z,53.62
2023-02-16T20:05:06.429Z,54.12
2023-02-16T20:07:35.014Z,54.17
2023-02-16T20:10:01.540Z,54.36
2023-02-16T20:12:28.723Z,54.72
2023-02-16T20:15:01.153Z,55.09
2023-02-16T20:17:27.720Z,55.48
2023-02-16T20:19:54.214Z,55.64
2023-02-16T20:22:20.771Z,56.00
2023-02-16T20:24:47.334Z,56.83
2023-02-16T20:27:14.080Z,57.12
2023-02-16T20:29:42.785Z,58.14
2023-02-16T20:32:09.483Z,58.11
2023-02-16T20:34:36.056Z,58.60
2023-02-16T20:37:02.552Z,59.19
2023-02-16T20:39:29.275Z,59.87
2023-02-16T20:42:00.093Z,60.08
2023-02-16T20:44:27.995Z,60.41
2023-02-16T20:46:56.546Z,60.43
2023-02-16T20:49:23.141Z,59.84
2023-02-16T20:51:49.696Z,58.93
2023-02-16T20:54:16.289Z,59.53
2023-02-16T20:56:42.814Z,61.43
2023-02-16T20:59:10.972Z,61.48
2023-02-16T21:01:40.792Z,61.63
2023-02-16T21:04:08.201Z,61.95
2023-02-16T21:06:35.565Z,62.15
2023-02-16T21:09:02.925Z,62.37
2023-02-16T21:11:29.511Z,62.87
2023-02-16T21:13:59.134Z,62.60
2023-02-16T21:16:30.648Z,62.26
2023-02-16T21:18:57.905Z,62.42
2023-02-16T21:21:25.990Z,61.97
2023-02-16T21:23:54.366Z,62.00
2023-02-16T21:26:23.918Z,62.21
2023-02-16T21:28:50.785Z,61.52
2023-02-16T21:31:21.660Z,61.60
2023-02-16T21:33:48.738Z,61.84
2023-02-16T21:36:18.687Z,61.69
2023-02-16T21:38:45.548Z,62.05
2023-02-16T21:41:24.896Z,61.98
2023-02-16T21:43:55.633Z,62.92
2023-02-16T21:46:23.321Z,62.63
2023-02-16T21:48:50.362Z,62.91
2023-02-16T21:51:24.243Z,63.42
2023-02-16T21:53:51.949Z,63.27
2023-02-16T21:56:39.939Z,64.02
2023-02-16T21:59:10.185Z,64.01
2023-02-16T22:01:48.487Z,63.46
2023-02-16T22:04:18.594Z,63.88
2023-02-16T22:06:47.619Z,63.71
2023-02-16T22:09:18.323Z,63.32
2023-02-16T22:11:45.933Z,63.23
2023-02-16T22:14:12.937Z,63.22
2023-02-16T22:16:39.948Z,63.17
2023-02-16T22:19:13.023Z,63.60
2023-02-16T22:21:41.626Z,63.23
2023-02-16T22:24:10.439Z,62.80
2023-02-16T22:26:37.394Z,63.30
2023-02-16T22:29:06.621Z,63.20
2023-02-16T22:31:34.509Z,63.57
2023-02-16T22:34:11.703Z,64.00
2023-02-16T22:36:38.558Z,63.53
2023-02-16T22:39:06.113Z,63.38
2023-02-16T22:41:34.314Z,63.36
2023-02-16T22:44:04.473Z,63.29
2023-02-16T22:46:32.052Z,63.99
2023-02-16T22:49:02.924Z,64.79
2023-02-16T22:51:34.376Z,66.50
2023-02-16T22:54:02.332Z,68.26
2023-02-16T22:56:32.391Z,69.17
2023-02-16T22:59:02.743Z,69.76
2023-02-16T23:01:33.808Z,70.34
2023-02-16T23:04:04.199Z,69.98
2023-02-16T23:06:37.632Z,70.67
2023-02-16T23:09:12.299Z,70.49
2023-02-16T23:11:39.232Z,70.60
2023-02-16T23:14:05.914Z,70.77
2023-02-16T23:16:35.552Z,70.39
2023-02-16T23:19:05.239Z,70.22
2023-02-16T23:21:34.086Z,69.85
2023-02-16T23:24:02.719Z,69.30
2023-02-16T23:26:34.438Z,69.33
2023-02-16T23:29:03.499Z,69.34
2023-02-16T23:31:34.735Z,69.67
2023-02-16T23:34:05.485Z,70.17
2023-02-16T23:36:35.049Z,69.33
2023-02-16T23:39:05.476Z,69.53
2023-02-16T23:41:35.564Z,69.62
2023-02-16T23:44:06.489Z,70.04
2023-02-16T23:46:36.174Z,71.03
2023-02-16T23:49:04.802Z,72.11
2023-02-16T23:51:35.114Z,72.96
2023-02-16T23:54:02.527Z,72.35
2023-02-16T23:56:29.600Z,72.24
2023-02-16T23:58:58.763Z,72.34
